Time;durP1;ratioP1;P1;durP2;ratioP2;P2;SDS_P1;SDS_P2;PMS_P1;PMS_P2;Temp;Humidity;BMP_temperature;BMP_pressure;BME280_temperature;BME280_humidity;BME280_pressure;Samples;Min_cycle;Max_cycle;Signal;HPM_P1;HPM_P2
2022/01/10 00:02:07;;;;;;;13.93;7.32;;;;;;;5.77;100.00;100039.94;5115449;27;20026;-71
2022/01/10 00:04:32;;;;;;;;;;;;;;;5.78;100.00;100049.03;5085891;27;20064;-71
2022/01/10 00:06:57;;;;;;;;;;;;;;;5.78;100.00;100060.88;5099495;27;19925;-71
2022/01/10 00:09:23;;;;;;;14.65;7.10;;;;;;;5.77;100.00;100058.41;5131619;27;20048;-71
2022/01/10 00:11:48;;;;;;;13.68;6.68;;;;;;;5.77;100.00;100056.47;5085146;27;20026;-71
2022/01/10 00:14:14;;;;;;;14.40;6.85;;;;;;;5.78;100.00;100065.56;5086547;27;20026;-71
2022/01/10 00:16:40;;;;;;;13.18;6.75;;;;;;;5.77;100.00;100055.66;5087657;27;20437;-71
2022/01/10 00:19:05;;;;;;;9.95;6.18;;;;;;;5.78;100.00;100049.84;5097423;27;20095;-71
2022/01/10 00:21:30;;;;;;;11.60;6.20;;;;;;;5.77;100.00;100064.75;5081180;27;20031;-71
2022/01/10 00:23:56;;;;;;;10.55;6.20;;;;;;;5.77;100.00;100075.75;5099485;28;20441;-71
2022/01/10 00:26:21;;;;;;;10.50;5.97;;;;;;;5.78;100.00;100071.91;5112119;27;20031;-71
2022/01/10 00:28:47;;;;;;;10.32;5.63;;;;;;;5.77;100.00;100072.19;5118680;27;20068;-71
2022/01/10 00:31:12;;;;;;;8.70;5.22;;;;;;;5.77;100.00;100077.69;5124775;27;20074;-71
2022/01/10 00:33:38;;;;;;;8.85;5.75;;;;;;;5.77;100.00;100072.19;5108163;27;20061;-71
2022/01/10 00:36:03;;;;;;;12.00;6.15;;;;;;;5.77;100.00;100085.97;5088305;27;20102;-71
2022/01/10 00:38:29;;;;;;;10.85;5.57;;;;;;;5.79;100.00;100084.59;5099692;28;20058;-71
2022/01/10 00:40:54;;;;;;;9.05;5.38;;;;;;;5.77;100.00;100083.22;5097592;28;20032;-71
2022/01/10 00:43:30;;;;;;;10.68;5.80;;;;;;;5.77;100.00;100083.22;5083924;28;20482;-71
2022/01/10 00:45:56;;;;;;;9.18;5.63;;;;;;;5.78;100.00;100082.91;5065830;27;20403;-71
2022/01/10 00:48:21;;;;;;;10.52;5.93;;;;;;;5.75;100.00;100083.47;5065165;28;20149;-71
2022/01/10 00:50:47;;;;;;;12.60;5.25;;;;;;;5.77;100.00;100086.78;5086950;27;20043;-71
2022/01/10 00:53:12;;;;;;;11.50;5.47;;;;;;;5.78;100.00;100098.63;5085097;28;20028;-71
2022/01/10 00:55:38;;;;;;;9.85;5.32;;;;;;;5.74;100.00;100090.09;5065683;28;20031;-71
2022/01/10 00:58:03;;;;;;;8.43;5.05;;;;;;;5.77;100.00;100091.47;5092326;28;20028;-71
2022/01/10 01:00:29;;;;;;;10.95;5.05;;;;;;;5.76;100.00;100095.31;5060608;28;20024;-71
2022/01/10 01:02:54;;;;;;;9.43;4.78;;;;;;;5.76;100.00;100090.63;5057105;28;20115;-71
2022/01/10 01:05:21;;;;;;;7.60;4.63;;;;;;;5.76;100.00;100089.78;5062947;28;20077;-71
2022/01/10 01:07:47;;;;;;;9.38;5.25;;;;;;;5.77;100.00;100095.06;5076380;28;20031;-71
2022/01/10 01:13:11;;;;;;;10.27;5.75;;;;;;;5.76;100.00;100101.66;5067571;28;20023;-71
2022/01/10 01:15:45;;;;;;;10.63;6.25;;;;;;;5.76;100.00;100111.84;5076134;28;20020;-72
2022/01/10 01:18:18;;;;;;;17.48;8.93;;;;;;;5.72;100.00;100116.25;5079684;28;20471;-72
2022/01/10 01:23:59;;;;;;;14.07;8.02;;;;;;;5.72;100.00;100121.78;5080462;27;20369;-72
2022/01/10 01:26:14;;;;;;;13.98;7.70;;;;;;;5.72;100.00;100127.28;5100273;28;20071;-71
2022/01/10 01:28:39;;;;;;;11.85;7.15;;;;;;;5.71;100.00;100125.59;5064385;28;20495;-72
2022/01/10 01:31:05;;;;;;;15.65;7.22;;;;;;;5.75;100.00;100115.72;5084222;28;20116;-71
2022/01/10 01:33:30;;;;;;;;;;;;;;;5.76;100.00;100115.41;5106068;28;20027;-71
2022/01/10 01:35:56;;;;;;;;;;;;;;;5.74;100.00;100114.88;5093136;28;19912;-71
2022/01/10 01:38:21;;;;;;;9.20;6.18;;;;;;;5.76;100.00;100106.34;5085282;28;19912;-71
2022/01/10 01:40:55;;;;;;;;;;;;;;;5.76;100.00;100111.84;5105403;28;20024;-71
2022/01/10 01:43:20;;;;;;;10.75;6.90;;;;;;;5.75;100.00;100121.22;5108062;28;20306;-71
2022/01/10 01:45:47;;;;;;;14.38;9.15;;;;;;;5.76;100.00;100128.38;5091437;28;20043;-71
2022/01/10 01:48:13;;;;;;;;;;;;;;;5.75;100.00;100132.25;5067387;28;20066;-71
2022/01/10 01:50:38;;;;;;;;;;;;;;;5.76;100.00;100120.94;5105469;28;19912;-71
2022/01/10 01:53:04;;;;;;;9.20;6.55;;;;;;;5.74;100.00;100125.91;5073822;28;19912;-71
2022/01/10 01:55:30;;;;;;;12.98;6.43;;;;;;;5.78;100.00;100121.50;5072736;28;20441;-72
2022/01/10 01:57:56;;;;;;;11.70;7.72;;;;;;;5.76;100.00;100136.66;5051881;28;20549;-71
2022/01/10 02:00:22;;;;;;;14.25;8.10;;;;;;;5.77;100.00;100141.06;5069824;28;20036;-71
2022/01/10 02:02:49;;;;;;;21.70;10.35;;;;;;;5.75;100.00;100154.28;5089300;28;20039;-72
2022/01/10 02:05:15;;;;;;;23.58;10.68;;;;;;;5.74;100.00;100156.22;5083168;28;20035;-71
2022/01/10 02:07:40;;;;;;;19.73;10.63;;;;;;;5.74;100.00;100158.13;5071805;28;20023;-72
2022/01/10 02:10:06;;;;;;;22.00;10.45;;;;;;;5.74;100.00;100175.50;5051131;28;20074;-71
2022/01/10 02:12:32;;;;;;;26.80;11.68;;;;;;;5.74;100.00;100181.03;5066149;28;20051;-71
2022/01/10 02:14:57;;;;;;;19.42;9.93;;;;;;;5.72;100.00;100191.47;5089421;28;20082;-71
2022/01/10 02:17:33;;;;;;;23.77;10.07;;;;;;;5.74;100.00;100193.94;5073096;28;20032;-72
2022/01/10 02:19:59;;;;;;;29.35;12.10;;;;;;;5.75;100.00;100198.38;5073574;28;20048;-71
2022/01/10 02:22:25;;;;;;;26.55;11.65;;;;;;;5.75;100.00;100196.44;5075561;28;20030;-72
2022/01/10 02:24:50;;;;;;;21.63;10.68;;;;;;;5.75;100.00;100201.13;5052072;28;20020;-71
2022/01/10 02:27:16;;;;;;;23.60;11.13;;;;;;;5.74;100.00;100191.19;5075368;28;20031;-71
2022/01/10 02:29:41;;;;;;;18.30;9.23;;;;;;;5.75;100.00;100188.19;5094004;28;20047;-72
2022/01/10 02:32:07;;;;;;;13.80;8.15;;;;;;;5.75;100.00;100187.34;5112982;28;20055;-72
2022/01/10 02:34:32;;;;;;;16.25;8.45;;;;;;;5.78;100.00;100187.63;5101878;28;20479;-71
2022/01/10 02:37:00;;;;;;;15.63;8.48;;;;;;;5.78;100.00;100181.28;5098719;28;20161;-71
2022/01/10 02:39:25;;;;;;;14.63;8.35;;;;;;;5.76;100.00;100189.81;5105677;28;20654;-71
2022/01/10 02:41:51;;;;;;;14.43;8.85;;;;;;;5.79;100.00;100182.94;5085944;27;20029;-72
2022/01/10 02:44:17;;;;;;;14.18;7.82;;;;;;;5.78;100.00;100184.88;5057285;27;20030;-71
2022/01/10 02:46:43;;;;;;;18.20;9.32;;;;;;;5.78;100.00;100173.84;5088043;28;20032;-72
2022/01/10 02:49:35;;;;;;;15.20;9.30;;;;;;;5.81;100.00;100186.28;5062813;28;20027;-72
2022/01/10 02:52:02;;;;;;;15.15;9.10;;;;;;;5.81;100.00;100187.09;5103601;28;20048;-72
2022/01/10 02:54:27;;;;;;;;;;;;;;;5.81;100.00;100183.50;5114865;28;20031;-72
2022/01/10 02:56:54;;;;;;;17.00;9.98;;;;;;;5.80;100.00;100190.97;5102368;27;19911;-71
2022/01/10 02:59:21;;;;;;;15.25;9.43;;;;;;;5.81;100.00;100197.28;5101504;27;20030;-71
2022/01/10 03:01:47;;;;;;;16.52;8.95;;;;;;;5.81;100.00;100200.03;5093794;28;20434;-72
2022/01/10 03:04:12;;;;;;;15.00;9.32;;;;;;;5.81;100.00;100202.81;5095205;28;20026;-72
2022/01/10 03:06:39;;;;;;;18.23;10.00;;;;;;;5.82;100.00;100201.69;5070490;28;20487;-72
2022/01/10 03:09:06;;;;;;;20.52;10.45;;;;;;;5.81;100.00;100203.63;5100986;28;20076;-71
2022/01/10 03:11:39;;;;;;;15.23;8.88;;;;;;;5.81;100.00;100208.31;5113060;27;20105;-72
2022/01/10 03:14:05;;;;;;;15.85;10.75;;;;;;;5.82;100.00;100209.97;5082530;27;20755;-72
2022/01/10 03:16:30;;;;;;;15.95;10.35;;;;;;;5.82;100.00;100212.72;5096182;28;20378;-71
2022/01/10 03:18:56;;;;;;;17.03;10.47;;;;;;;5.83;100.00;100214.41;5101633;27;20381;-71
2022/01/10 03:21:21;;;;;;;13.02;9.43;;;;;;;5.82;100.00;100220.97;5105226;27;20386;-72
2022/01/10 03:23:47;;;;;;;12.73;8.43;;;;;;;5.84;100.00;100232.56;5084593;27;20035;-72
2022/01/10 03:26:13;;;;;;;13.18;7.53;;;;;;;5.83;100.00;100223.47;5097790;27;20035;-71
2022/01/10 03:28:38;;;;;;;13.48;7.85;;;;;;;5.85;100.00;100244.41;5102250;27;20391;-72
2022/01/10 03:31:04;;;;;;;14.93;8.65;;;;;;;5.83;100.00;100251.03;5074627;27;20048;-71
2022/01/10 03:33:29;;;;;;;13.65;8.50;;;;;;;5.84;100.00;100257.38;5106286;27;20027;-71
2022/01/10 03:35:54;;;;;;;11.35;8.18;;;;;;;5.84;100.00;100251.88;5093094;28;20030;-71
2022/01/10 03:38:20;;;;;;;11.77;7.85;;;;;;;5.85;100.00;100241.66;5099721;27;20031;-71
2022/01/10 03:40:46;;;;;;;12.38;7.97;;;;;;;5.86;100.00;100246.91;5102681;27;20073;-72
2022/01/10 03:43:11;;;;;;;12.98;8.52;;;;;;;5.86;100.00;100268.97;5086998;27;20045;-71
2022/01/10 03:45:37;;;;;;;12.18;8.27;;;;;;;5.84;100.00;100276.66;5069501;27;20579;-72
2022/01/10 03:48:02;;;;;;;11.05;7.80;;;;;;;5.84;100.00;100265.66;5079249;27;20027;-72
2022/01/10 03:50:28;;;;;;;12.02;8.10;;;;;;;5.85;100.00;100267.31;5094186;27;20753;-72
2022/01/10 03:52:53;;;;;;;10.50;7.03;;;;;;;5.83;100.00;100275.84;5102098;27;20050;-72
2022/01/10 03:55:19;;;;;;;10.77;7.72;;;;;;;5.86;100.00;100288.25;5097584;28;20360;-72
2022/01/10 03:57:44;;;;;;;10.30;7.18;;;;;;;5.87;100.00;100287.16;5083827;27;20386;-72
2022/01/10 04:00:10;;;;;;;10.75;6.65;;;;;;;5.87;100.00;100286.34;5112089;27;20034;-72
2022/01/10 04:02:38;;;;;;;10.23;6.68;;;;;;;5.86;100.00;100287.44;5117467;27;20031;-71
2022/01/10 04:05:04;;;;;;;14.00;7.07;;;;;;;5.85;100.00;100300.41;5099235;27;20041;-72
2022/01/10 04:07:29;;;;;;;10.77;6.78;;;;;;;5.86;100.00;100302.03;5129928;27;20478;-71
2022/01/10 04:09:55;;;;;;;8.95;6.72;;;;;;;5.85;100.00;100311.41;5094860;27;20084;-71
2022/01/10 04:12:21;;;;;;;8.55;6.18;;;;;;;5.87;100.00;100316.66;5116340;27;20486;-72
2022/01/10 04:14:46;;;;;;;8.35;6.22;;;;;;;5.86;100.00;100321.34;5116196;27;20031;-72
2022/01/10 04:17:13;;;;;;;9.63;5.90;;;;;;;5.87;100.00;100327.69;5117564;27;20487;-71
2022/01/10 04:19:38;;;;;;;8.88;6.05;;;;;;;5.86;100.00;100324.09;5070911;27;20078;-71
2022/01/10 04:22:04;;;;;;;8.77;6.50;;;;;;;5.86;100.00;100332.38;5101248;27;20042;-72
2022/01/10 04:24:30;;;;;;;11.68;6.35;;;;;;;5.88;100.00;100334.84;5095790;27;20031;-72
2022/01/10 04:26:55;;;;;;;11.32;6.60;;;;;;;5.87;100.00;100336.75;5099771;27;20040;-71
2022/01/10 04:29:21;;;;;;;13.38;6.05;;;;;;;5.87;100.00;100327.69;5079104;28;20089;-72
2022/01/10 04:31:46;;;;;;;7.57;5.78;;;;;;;5.87;100.00;100339.53;5078210;28;20055;-72
2022/01/10 04:34:12;;;;;;;8.57;5.65;;;;;;;5.87;100.00;100334.00;5066302;28;20395;-72
2022/01/10 04:36:38;;;;;;;9.02;6.07;;;;;;;5.86;100.00;100332.38;5077626;27;20437;-72
2022/01/10 04:39:03;;;;;;;8.65;5.65;;;;;;;5.88;100.00;100332.94;5098989;28;20080;-71
2022/01/10 04:41:29;;;;;;;9.48;5.20;;;;;;;5.88;100.00;100319.16;5077967;27;20035;-72
2022/01/10 04:43:54;;;;;;;8.52;5.30;;;;;;;5.86;100.00;100326.84;5098882;28;20031;-72
2022/01/10 04:46:20;;;;;;;;;;;;;;;5.87;100.00;100316.66;5099200;28;20028;-71
2022/01/10 04:48:45;;;;;;;7.78;4.90;;;;;;;5.86;100.00;100317.75;5105252;28;20344;-71
2022/01/10 04:51:12;;;;;;;6.32;4.65;;;;;;;5.88;100.00;100312.78;5049425;28;20028;-71
2022/01/10 04:53:39;;;;;;;6.60;4.60;;;;;;;5.87;100.00;100322.16;5112403;28;20093;-71
2022/01/10 04:56:05;;;;;;;7.60;3.95;;;;;;;5.85;100.00;100324.34;5094319;28;20028;-71
2022/01/10 04:58:30;;;;;;;5.70;3.78;;;;;;;5.87;100.00;100324.91;5048803;28;20077;-72
2022/01/10 05:00:56;;;;;;;6.60;4.22;;;;;;;5.85;100.00;100336.22;5076238;28;20388;-72
2022/01/10 05:03:22;;;;;;;6.22;3.78;;;;;;;5.86;100.00;100343.38;5078308;27;20035;-72
2022/01/10 05:05:52;;;;;;;5.65;3.83;;;;;;;5.87;100.00;100345.03;5077514;28;20074;-72
2022/01/10 05:08:18;;;;;;;4.40;3.30;;;;;;;5.88;100.00;100356.88;5085952;28;20038;-72
2022/01/10 05:10:44;;;;;;;5.18;3.05;;;;;;;5.86;100.00;100365.44;5099549;28;20027;-71
2022/01/10 05:13:10;;;;;;;5.35;3.10;;;;;;;5.87;100.00;100361.56;5094868;28;20040;-72
2022/01/10 05:15:35;;;;;;;5.00;2.63;;;;;;;5.87;100.00;100372.59;5066766;28;20019;-72
2022/01/10 05:18:01;;;;;;;6.85;3.30;;;;;;;5.86;100.00;100365.44;5091346;28;20058;-72
2022/01/10 05:20:26;;;;;;;5.70;3.00;;;;;;;5.88;100.00;100378.94;5099925;27;20019;-71
2022/01/10 05:22:52;;;;;;;4.57;2.90;;;;;;;5.86;100.00;100381.97;5101401;28;20032;-71
2022/01/10 05:25:17;;;;;;;5.88;3.03;;;;;;;5.88;100.00;100385.31;5061399;28;20024;-71
2022/01/10 05:27:43;;;;;;;3.10;2.40;;;;;;;5.89;100.00;100394.41;5058320;28;20050;-71
2022/01/10 05:30:09;;;;;;;4.07;2.50;;;;;;;5.87;100.00;100386.38;5084626;27;20091;-71
2022/01/10 05:32:34;;;;;;;3.83;2.40;;;;;;;5.85;100.00;100398.75;5066183;28;20048;-71
2022/01/10 05:35:00;;;;;;;3.40;2.45;;;;;;;5.87;100.00;100396.56;5086819;27;20019;-71
2022/01/10 05:37:25;;;;;;;5.15;2.78;;;;;;;5.87;100.00;100402.09;5092494;28;20541;-72
2022/01/10 05:39:51;;;;;;;5.10;2.90;;;;;;;5.85;100.00;100402.38;5062934;28;20479;-71
2022/01/10 05:42:19;;;;;;;4.40;3.10;;;;;;;5.86;100.00;100398.50;5076470;28;20028;-71
2022/01/10 05:44:44;;;;;;;5.20;3.20;;;;;;;5.87;100.00;100402.09;5058699;28;20108;-72
2022/01/10 05:47:10;;;;;;;8.00;3.30;;;;;;;5.86;100.00;100397.69;5074484;28;20031;-71
2022/01/10 05:49:37;;;;;;;6.55;3.30;;;;;;;5.87;100.00;100405.66;5082577;28;20043;-71
2022/01/10 05:52:03;;;;;;;5.43;3.67;;;;;;;5.86;100.00;100404.03;5079865;28;20030;-72
2022/01/10 05:54:29;;;;;;;4.75;3.08;;;;;;;5.85;100.00;100418.91;5081044;28;20476;-71
2022/01/10 05:56:54;;;;;;;4.22;2.95;;;;;;;5.83;100.00;100424.69;5080605;28;20061;-71
2022/01/10 05:59:20;;;;;;;4.28;3.10;;;;;;;5.84;100.00;100422.75;5061448;28;20032;-71
2022/01/10 06:01:45;;;;;;;4.07;2.95;;;;;;;5.85;100.00;100429.94;5095005;28;20387;-71
2022/01/10 06:04:11;;;;;;;4.32;3.35;;;;;;;5.84;100.00;100439.28;5081051;28;20031;-71
2022/01/10 06:06:37;;;;;;;6.22;3.53;;;;;;;5.85;100.00;100442.84;5081013;28;20434;-71
2022/01/10 06:09:03;;;;;;;5.15;3.10;;;;;;;5.85;100.00;100446.47;5063522;28;20433;-71
2022/01/10 06:11:28;;;;;;;5.07;2.80;;;;;;;5.84;100.00;100444.78;5081878;28;20118;-71
2022/01/10 06:13:54;;;;;;;5.97;3.05;;;;;;;5.85;100.00;100457.50;5078034;28;20035;-71
2022/01/10 06:16:19;;;;;;;;;;;;;;;5.86;100.00;100456.38;5095213;28;20028;-71
2022/01/10 06:18:44;;;;;;;;;;;;;;;5.86;100.00;100456.38;5103646;28;19918;-71
2022/01/10 06:21:10;;;;;;;5.50;2.90;;;;;;;5.86;100.00;100456.38;5095451;28;19933;-71
2022/01/10 06:23:35;;;;;;;5.30;3.58;;;;;;;5.83;100.00;100455.00;5101755;28;20030;-71
2022/01/10 06:26:01;;;;;;;4.50;3.40;;;;;;;5.86;100.00;100461.91;5103292;28;20397;-71
2022/01/10 06:28:26;;;;;;;5.40;3.63;;;;;;;5.85;100.00;100463.00;5064071;28;21092;-72
2022/01/10 06:30:52;;;;;;;4.55;3.30;;;;;;;5.85;100.00;100464.91;5089178;28;20401;-71
2022/01/10 06:33:17;;;;;;;4.90;3.87;;;;;;;5.87;100.00;100466.31;5095239;28;20388;-71
2022/01/10 06:35:43;;;;;;;5.13;3.60;;;;;;;5.87;100.00;100466.31;5102002;28;20375;-72
2022/01/10 06:38:08;;;;;;;4.57;3.60;;;;;;;5.86;100.00;100472.09;5098961;28;20384;-72
2022/01/10 06:40:34;;;;;;;5.93;4.10;;;;;;;5.89;100.00;100468.81;5095615;28;20401;-72
2022/01/10 06:42:59;;;;;;;5.32;4.10;;;;;;;5.85;100.00;100476.78;5097464;28;20382;-71
2022/01/10 06:45:25;;;;;;;5.73;4.20;;;;;;;5.86;100.00;100475.69;5095453;28;21008;-70
2022/01/10 06:47:50;;;;;;;5.90;4.30;;;;;;;5.89;100.00;100474.34;5075643;27;20448;-71
2022/01/10 06:50:16;;;;;;;5.60;3.95;;;;;;;5.88;100.00;100479.00;5052554;28;20035;-71
2022/01/10 06:52:41;;;;;;;5.05;3.20;;;;;;;5.89;100.00;100483.41;5087133;28;20036;-72
2022/01/10 06:55:07;;;;;;;5.45;3.60;;;;;;;5.91;100.00;100495.03;5067854;28;20028;-71
2022/01/10 06:57:33;;;;;;;5.93;3.85;;;;;;;5.89;100.00;100494.44;5098865;28;20483;-71
2022/01/10 06:59:59;;;;;;;6.60;4.10;;;;;;;5.90;100.00;100504.38;5067391;27;20027;-71
2022/01/10 07:02:24;;;;;;;9.60;4.80;;;;;;;5.87;100.00;100510.41;5101268;28;20085;-72
2022/01/10 07:04:50;;;;;;;9.40;4.13;;;;;;;5.88;100.00;100511.22;5064042;28;20082;-71
2022/01/10 07:07:15;;;;;;;11.27;4.70;;;;;;;5.88;100.00;100525.88;5099937;27;20395;-71
2022/01/10 07:09:40;;;;;;;7.75;4.65;;;;;;;5.91;100.00;100538.31;5081154;27;20027;-71
2022/01/10 07:12:07;;;;;;;7.88;4.63;;;;;;;5.85;100.00;100534.66;5074979;27;20031;-71
2022/01/10 07:14:34;;;;;;;7.78;4.88;;;;;;;5.85;100.00;100526.41;5087923;28;20023;-71
2022/01/10 07:17:00;;;;;;;8.63;4.88;;;;;;;5.86;100.00;100535.50;5067697;28;20028;-71
2022/01/10 07:19:25;;;;;;;9.27;4.78;;;;;;;5.85;100.00;100539.31;5079214;28;20077;-71
2022/01/10 07:21:51;;;;;;;9.55;4.50;;;;;;;5.85;100.00;100542.94;5053899;27;20032;-71
2022/01/10 07:24:17;;;;;;;8.25;5.20;;;;;;;5.87;100.00;100546.25;5075804;28;20031;-70
2022/01/10 07:26:42;;;;;;;9.60;5.40;;;;;;;5.87;100.00;100551.75;5083817;28;20098;-70
2022/01/10 07:29:08;;;;;;;10.48;5.20;;;;;;;5.88;100.00;100556.19;5066875;28;20048;-70
2022/01/10 07:31:34;;;;;;;11.25;6.38;;;;;;;5.88;100.00;100566.38;5084403;28;20044;-70
2022/01/10 07:34:01;;;;;;;10.93;6.32;;;;;;;5.89;100.00;100568.03;5063356;28;20024;-70
2022/01/10 07:36:27;;;;;;;10.25;6.47;;;;;;;5.88;100.00;100567.22;5080517;27;20019;-70
2022/01/10 07:38:52;;;;;;;11.80;6.50;;;;;;;5.87;100.00;100571.06;5056598;28;20043;-70
2022/01/10 07:41:18;;;;;;;10.50;6.60;;;;;;;5.86;100.00;100585.94;5099419;28;20035;-70
2022/01/10 07:43:43;;;;;;;14.50;7.32;;;;;;;5.88;100.00;100597.53;5079251;28;20032;-70
2022/01/10 07:46:10;;;;;;;15.80;7.75;;;;;;;5.86;100.00;100596.13;5081138;28;20039;-70
2022/01/10 07:48:37;;;;;;;14.32;8.00;;;;;;;5.86;100.00;100607.16;5086565;28;20073;-70
2022/01/10 07:51:03;;;;;;;15.52;9.05;;;;;;;5.86;100.00;100619.00;5095144;27;20027;-70
2022/01/10 07:53:29;;;;;;;15.27;8.32;;;;;;;5.87;100.00;100620.66;5050389;28;20028;-70
2022/01/10 07:55:54;;;;;;;14.85;8.35;;;;;;;5.87;100.00;100625.34;5069448;28;20384;-70
2022/01/10 07:58:20;;;;;;;17.73;8.63;;;;;;;5.87;100.00;100622.59;5082060;28;20035;-70
2022/01/10 08:00:45;;;;;;;18.03;10.30;;;;;;;5.88;100.00;100627.88;5042354;28;20412;-70
2022/01/10 08:03:11;;;;;;;16.10;8.63;;;;;;;5.87;100.00;100637.19;5095749;28;20024;-70
2022/01/10 08:05:37;;;;;;;17.63;8.82;;;;;;;5.87;100.00;100641.88;5092024;27;20068;-70
2022/01/10 08:08:02;;;;;;;16.08;8.95;;;;;;;5.85;100.00;100633.91;5100987;27;20046;-70
2022/01/10 08:10:28;;;;;;;14.98;7.70;;;;;;;5.86;100.00;100651.25;5083679;28;20560;-71
2022/01/10 08:12:54;;;;;;;16.92;8.57;;;;;;;5.88;100.00;100654.56;5067168;28;20123;-70
2022/01/10 08:15:20;;;;;;;14.70;8.73;;;;;;;5.88;100.00;100652.66;5097094;27;20085;-70
2022/01/10 08:17:45;;;;;;;16.40;9.40;;;;;;;5.89;100.00;100659.84;5050155;28;20024;-70
2022/01/10 08:20:11;;;;;;;15.88;8.48;;;;;;;5.88;100.00;100676.63;5073661;28;20365;-70
2022/01/10 08:22:37;;;;;;;18.23;10.75;;;;;;;5.87;100.00;100675.78;5079659;28;20436;-70
2022/01/10 08:25:03;;;;;;;16.02;9.15;;;;;;;5.91;100.00;100682.47;5100367;28;20031;-70
2022/01/10 08:27:28;;;;;;;16.45;8.70;;;;;;;5.91;100.00;100687.97;5072508;27;20027;-70
2022/01/10 08:29:54;;;;;;;18.83;9.88;;;;;;;5.91;100.00;100687.97;5089470;28;20035;-70
2022/01/10 08:32:19;;;;;;;17.67;8.90;;;;;;;5.93;100.00;100695.97;5088750;27;20055;-70
2022/01/10 08:34:45;;;;;;;20.60;10.35;;;;;;;5.93;100.00;100695.97;5068425;28;20028;-70
2022/01/10 08:37:10;;;;;;;16.55;9.27;;;;;;;5.90;100.00;100705.59;5086865;28;20020;-70
2022/01/10 08:39:36;;;;;;;17.63;9.65;;;;;;;5.93;100.00;100718.03;5066005;28;20066;-70
2022/01/10 08:42:02;;;;;;;20.83;9.43;;;;;;;5.93;100.00;100715.28;5081642;27;20036;-70
2022/01/10 08:44:28;;;;;;;18.70;11.25;;;;;;;5.95;100.00;100725.00;5052073;27;20384;-70
2022/01/10 08:46:53;;;;;;;18.63;9.70;;;;;;;5.96;100.00;100723.91;5077512;28;20442;-70
2022/01/10 08:49:19;;;;;;;17.33;9.15;;;;;;;5.94;100.00;100726.09;5058637;28;20022;-70
2022/01/10 08:51:46;;;;;;;19.23;10.75;;;;;;;5.95;100.00;100722.22;5062754;27;20392;-70
2022/01/10 08:54:11;;;;;;;18.05;8.82;;;;;;;5.97;100.00;100730.25;5069639;27;20032;-70
2022/01/10 08:56:37;;;;;;;14.48;7.72;;;;;;;5.98;100.00;100735.50;5087968;28;20026;-70
2022/01/10 08:59:04;;;;;;;14.68;8.32;;;;;;;6.00;100.00;100743.53;5071568;28;20087;-70
2022/01/10 09:01:31;;;;;;;;;;;;;;;6.01;100.00;100739.66;5062092;28;20029;-70
2022/01/10 09:03:57;;;;;;;17.27;8.85;;;;;;;6.02;100.00;100746.88;5087310;28;19934;-70
2022/01/10 09:06:23;;;;;;;14.73;8.57;;;;;;;6.05;100.00;100743.59;5077155;28;20028;-70
2022/01/10 09:08:48;;;;;;;13.95;8.15;;;;;;;6.04;100.00;100747.41;5075741;28;20063;-70
2022/01/10 09:11:14;;;;;;;15.07;8.15;;;;;;;6.07;100.00;100749.66;5095394;28;20043;-70
2022/01/10 09:13:40;;;;;;;16.77;9.25;;;;;;;6.11;100.00;100756.34;5098235;28;20063;-70
2022/01/10 09:16:07;;;;;;;15.65;8.32;;;;;;;6.11;100.00;100764.59;5076125;28;20019;-70
2022/01/10 09:18:33;;;;;;;13.43;7.88;;;;;;;6.13;100.00;100762.44;5064266;28;20028;-71
2022/01/10 09:20:58;;;;;;;12.48;7.53;;;;;;;6.16;100.00;100772.13;5062831;28;20042;-70
2022/01/10 09:23:24;;;;;;;15.45;8.23;;;;;;;6.17;100.00;100763.56;5080121;27;20237;-70
2022/01/10 09:25:50;;;;;;;14.85;7.60;;;;;;;6.19;100.00;100772.41;5078404;28;20036;-70
2022/01/10 09:28:16;;;;;;;15.20;8.27;;;;;;;6.21;100.00;100781.28;5090489;27;20035;-70
2022/01/10 09:30:42;;;;;;;13.00;7.53;;;;;;;6.24;100.00;100779.91;5080786;28;20032;-71
2022/01/10 09:33:07;;;;;;;13.77;7.25;;;;;;;6.26;100.00;100786.81;5068764;27;20077;-70
2022/01/10 09:35:33;;;;;;;13.50;7.88;;;;;;;6.30;100.00;100783.56;5081642;28;20024;-70
2022/01/10 09:37:58;;;;;;;11.35;6.90;;;;;;;6.31;100.00;100786.06;5079248;27;20066;-70
2022/01/10 09:40:24;;;;;;;11.23;6.80;;;;;;;6.35;100.00;100786.38;5083712;27;20029;-70
2022/01/10 09:42:50;;;;;;;12.70;7.05;;;;;;;6.37;100.00;100792.47;5056376;28;20040;-70
2022/01/10 09:45:16;;;;;;;11.95;7.07;;;;;;;6.40;100.00;100798.28;5064369;28;20024;-70
2022/01/10 09:47:41;;;;;;;13.80;6.97;;;;;;;6.41;100.00;100805.50;5081024;28;20564;-70
2022/01/10 09:50:08;;;;;;;10.82;6.63;;;;;;;6.43;100.00;100794.19;5122564;27;20105;-70
2022/01/10 09:52:34;;;;;;;10.90;6.43;;;;;;;6.43;100.00;100800.53;5086596;28;20027;-70
2022/01/10 09:54:59;;;;;;;10.57;6.00;;;;;;;6.45;100.00;100800.28;5082745;28;20028;-70
2022/01/10 09:57:25;;;;;;;10.98;6.45;;;;;;;6.47;100.00;100787.91;5081207;28;20042;-70
2022/01/10 09:59:50;;;;;;;9.52;6.68;;;;;;;6.51;100.00;100798.41;5093137;28;20042;-70
2022/01/10 10:02:16;;;;;;;10.73;6.85;;;;;;;6.53;100.00;100815.53;5079922;28;20059;-70
2022/01/10 10:04:43;;;;;;;11.23;6.75;;;;;;;6.56;100.00;100812.25;5061711;28;20035;-70
2022/01/10 10:07:09;;;;;;;9.38;6.22;;;;;;;6.58;100.00;100832.16;5078063;28;20031;-70
2022/01/10 10:09:34;;;;;;;8.98;6.20;;;;;;;6.61;100.00;100834.41;5066962;28;20035;-70
2022/01/10 10:12:00;;;;;;;10.40;6.90;;;;;;;6.63;100.00;100844.09;5090483;28;20047;-70
2022/01/10 10:14:26;;;;;;;;;;;;;;;6.65;100.00;100852.09;5080331;28;20063;-70
2022/01/10 10:16:54;;;;;;;11.80;7.47;;;;;;;6.67;100.00;100860.94;5065651;28;19966;-70
2022/01/10 10:19:27;;;;;;;10.32;6.20;;;;;;;6.69;100.00;100861.53;5080874;28;20032;-70
2022/01/10 10:21:53;;;;;;;12.07;7.03;;;;;;;6.71;100.00;100867.59;5085399;28;20059;-71
2022/01/10 10:24:19;;;;;;;11.27;8.30;;;;;;;6.72;100.00;100870.13;5083728;28;20081;-71
2022/01/10 10:26:45;;;;;;;10.95;7.20;;;;;;;6.71;100.00;100862.94;5067655;28;20035;-70
2022/01/10 10:29:13;;;;;;;9.70;6.80;;;;;;;6.75;100.00;100870.72;5078119;28;20044;-71
2022/01/10 10:31:50;;;;;;;10.40;6.68;;;;;;;6.77;100.00;100868.50;5083949;27;20368;-70
2022/01/10 10:34:22;;;;;;;9.32;6.60;;;;;;;6.77;100.00;100872.13;5096295;27;20034;-70
2022/01/10 10:37:03;;;;;;;7.60;5.88;;;;;;;6.77;100.00;100872.13;5100459;27;20501;-71
2022/01/10 10:39:29;;;;;;;7.68;5.75;;;;;;;6.83;100.00;100870.25;5080622;28;20514;-74
2022/01/10 10:41:56;;;;;;;8.52;6.40;;;;;;;6.87;100.00;100863.91;5084013;27;20042;-73
2022/01/10 10:44:21;;;;;;;9.38;6.13;;;;;;;6.93;100.00;100871.16;5051175;28;20387;-73
2022/01/10 10:46:47;;;;;;;8.07;5.80;;;;;;;6.97;100.00;100868.72;5080327;28;20024;-74
2022/01/10 10:49:14;;;;;;;7.55;5.57;;;;;;;7.01;100.00;100869.03;5089720;28;20101;-73
2022/01/10 10:51:39;;;;;;;8.18;6.07;;;;;;;7.05;100.00;100867.38;5090303;28;20055;-70
2022/01/10 10:54:07;;;;;;;7.47;5.72;;;;;;;7.09;100.00;100868.56;5078592;28;20038;-70
2022/01/10 10:56:37;;;;;;;7.70;5.18;;;;;;;7.11;100.00;100866.38;5083343;27;20023;-70
2022/01/10 10:59:07;;;;;;;7.30;5.72;;;;;;;7.14;100.00;100872.19;5083274;27;20056;-70
2022/01/10 11:01:39;;;;;;;8.13;5.40;;;;;;;7.20;100.00;100872.25;5055733;28;20047;-70
2022/01/10 11:04:09;;;;;;;9.27;6.10;;;;;;;7.25;100.00;100875.06;5080432;27;20032;-71
2022/01/10 11:06:35;;;;;;;6.20;4.97;;;;;;;7.28;100.00;100872.59;5074724;28;20067;-71
2022/01/10 11:09:06;;;;;;;6.80;5.30;;;;;;;7.31;100.00;100877.59;5058934;28;20558;-72
2022/01/10 11:11:31;;;;;;;7.57;4.97;;;;;;;7.37;100.00;100882.06;5052281;27;20052;-72
2022/01/10 11:13:58;;;;;;;5.90;4.97;;;;;;;7.42;100.00;100883.22;5062756;28;20050;-72
2022/01/10 11:16:24;;;;;;;7.03;5.50;;;;;;;7.46;100.00;100884.31;5058363;28;20024;-72
2022/01/10 11:18:49;;;;;;;7.35;5.68;;;;;;;7.50;100.00;100891.00;5060529;27;20165;-72
2022/01/10 11:21:15;;;;;;;6.65;5.70;;;;;;;7.53;100.00;100896.00;5056878;27;20487;-72
2022/01/10 11:23:43;;;;;;;9.18;5.95;;;;;;;7.56;100.00;100893.53;5048902;28;20384;-72
2022/01/10 11:26:09;;;;;;;8.70;6.10;;;;;;;7.59;100.00;100901.28;5102090;27;20035;-72